Time;durP1;ratioP1;P1;durP2;ratioP2;P2;SDS_P1;SDS_P2;PMS_P1;PMS_P2;Temp;Humidity;BMP_temperature;BMP_pressure;BME280_temperature;BME280_humidity;BME280_pressure;Samples;Min_cycle;Max_cycle;Signal;HPM_P1;HPM_P2
2022/04/09 00:09:49;;;;;;;0.87;0.30;;;9.00;99.90;;;;;;20779072;28;20030;-75
2022/04/09 00:19:51;;;;;;;0.30;0.30;;;8.60;99.90;;;;;;20743202;28;20088;-75
2022/04/09 00:29:52;;;;;;;1.67;0.45;;;8.20;99.90;;;;;;20737177;28;20069;-75
2022/04/09 00:39:53;;;;;;;0.50;0.20;;;7.90;99.90;;;;;;20733669;28;20105;-75
2022/04/09 00:49:54;;;;;;;0.70;0.30;;;7.50;99.90;;;;;;20731485;28;20164;-75
2022/04/09 00:59:56;;;;;;;0.20;0.20;;;7.60;99.90;;;;;;20688037;28;20512;-76
2022/04/09 01:09:56;;;;;;;0.10;0.10;;;6.80;99.90;;;;;;20759747;28;20458;-75
2022/04/09 01:19:58;;;;;;;8.18;0.30;;;6.20;99.90;;;;;;20812842;28;20034;-76
2022/04/09 01:30:01;;;;;;;1.30;0.20;;;5.90;99.90;;;;;;20816031;28;20641;-75
2022/04/09 01:40:04;;;;;;;0.85;0.30;;;5.50;99.90;;;;;;20828474;28;20120;-75
2022/04/09 01:50:05;;;;;;;0.10;0.10;;;4.90;99.90;;;;;;20823163;28;20026;-76
2022/04/09 02:00:10;;;;;;;0.20;0.20;;;4.70;99.90;;;;;;20754779;28;20058;-75
2022/04/09 02:10:20;;;;;;;0.28;0.28;;;4.00;99.90;;;;;;20744536;28;20037;-76
2022/04/09 02:20:21;;;;;;;0.40;0.40;;;3.60;99.90;;;;;;20744242;28;20033;-75
2022/04/09 02:30:22;;;;;;;0.70;0.70;;;3.40;99.90;;;;;;20745385;28;20026;-76
2022/04/09 02:40:28;;;;;;;0.43;0.40;;;3.10;99.90;;;;;;20742595;28;20036;-76
2022/04/09 02:50:30;;;;;;;0.40;0.40;;;3.30;99.90;;;;;;20742326;28;20029;-76
2022/04/09 03:00:31;;;;;;;0.52;0.50;;;3.20;99.90;;;;;;20742039;28;20133;-76
2022/04/09 03:10:31;;;;;;;0.50;0.50;;;3.00;99.90;;;;;;20756493;28;20025;-76
2022/04/09 03:20:32;;;;;;;0.40;0.40;;;2.90;99.90;;;;;;20822735;28;20120;-76
2022/04/09 03:30:34;;;;;;;0.60;0.60;;;2.80;99.90;;;;;;20806632;28;20124;-75
2022/04/09 03:40:35;;;;;;;0.85;0.82;;;2.60;99.90;;;;;;20831907;28;20464;-76
2022/04/09 03:50:37;;;;;;;2.25;1.83;;;2.40;99.90;;;;;;20836948;28;20029;-75
2022/04/09 04:00:39;;;;;;;4.20;3.00;;;2.20;99.90;;;;;;20836300;28;20029;-75
2022/04/09 04:10:41;;;;;;;6.13;3.83;;;2.00;99.90;;;;;;20854357;22;20415;-75
2022/04/09 04:21:00;;;;;;;8.82;5.07;;;2.00;99.90;;;;;;20836113;28;20029;-75
2022/04/09 04:31:04;;;;;;;8.43;5.30;;;1.90;99.90;;;;;;20801764;28;20551;-75
2022/04/09 04:41:05;;;;;;;7.63;5.00;;;1.90;99.90;;;;;;20816445;28;20033;-75
2022/04/09 04:51:07;;;;;;;6.40;4.30;;;2.00;99.90;;;;;;20815536;28;20037;-75
2022/04/09 05:01:09;;;;;;;6.95;4.13;;;2.00;99.90;;;;;;20815012;28;20124;-75
2022/04/09 05:11:16;;;;;;;5.97;3.72;;;2.10;99.90;;;;;;20814180;28;20034;-75
2022/04/09 05:21:18;;;;;;;4.95;3.45;;;2.20;99.90;;;;;;20813601;28;20064;-75
2022/04/09 05:31:22;;;;;;;4.85;3.20;;;2.10;99.90;;;;;;20830625;28;20423;-74
2022/04/09 05:41:23;;;;;;;5.03;3.22;;;2.10;99.90;;;;;;20813214;28;20151;-73
2022/04/09 05:51:27;;;;;;;3.95;2.55;;;2.20;99.90;;;;;;20811346;28;20025;-73
2022/04/09 06:01:29;;;;;;;4.75;3.33;;;2.30;99.90;;;;;;20792421;28;20034;-73
2022/04/09 06:11:31;;;;;;;5.45;3.50;;;2.40;99.90;;;;;;20810937;28;20084;-72
2022/04/09 06:21:38;;;;;;;5.40;3.40;;;2.50;99.90;;;;;;20808873;28;20068;-72
2022/04/09 06:31:40;;;;;;;2.85;2.22;;;2.60;99.90;;;;;;20808001;28;20076;-75
2022/04/09 06:41:43;;;;;;;2.95;2.35;;;2.70;99.90;;;;;;20807373;28;20045;-75
2022/04/09 06:51:49;;;;;;;4.25;2.75;;;2.60;99.90;;;;;;20807208;28;20171;-75
2022/04/09 07:02:14;;;;;;;3.53;2.35;;;2.60;99.90;;;;;;20806970;28;20034;-74
2022/04/09 07:12:16;;;;;;;2.92;2.40;;;2.60;99.90;;;;;;20830767;28;20408;-75
2022/04/09 07:22:17;;;;;;;3.78;2.67;;;2.70;99.90;;;;;;20822705;28;20038;-74
2022/04/09 07:32:18;;;;;;;4.93;2.50;;;2.70;99.90;;;;;;20824100;28;20038;-75
2022/04/09 07:42:23;;;;;;;4.03;2.70;;;2.90;99.90;;;;;;20814172;28;20034;-74
2022/04/09 07:52:23;;;;;;;3.35;2.40;;;3.10;99.90;;;;;;20888151;28;20040;-75
2022/04/09 08:02:25;;;;;;;3.60;2.50;;;3.30;99.90;;;;;;20855236;28;20036;-76
2022/04/09 08:12:26;;;;;;;4.43;3.03;;;3.50;99.90;;;;;;20860157;28;20594;-76
2022/04/09 08:22:27;;;;;;;5.18;3.33;;;3.60;99.90;;;;;;20898016;28;20029;-76
2022/04/09 08:32:29;;;;;;;5.53;3.72;;;3.90;99.90;;;;;;20846889;28;20568;-76
2022/04/09 08:42:30;;;;;;;4.57;3.33;;;3.90;99.90;;;;;;20815858;28;20034;-76
2022/04/09 08:52:32;;;;;;;5.25;3.40;;;3.90;99.90;;;;;;20870500;28;20052;-76
2022/04/09 09:02:37;;;;;;;5.03;3.22;;;4.10;99.90;;;;;;20813596;28;20120;-76
2022/04/09 09:12:39;;;;;;;4.90;3.05;;;4.20;99.90;;;;;;20812612;28;20045;-76
2022/04/09 09:22:42;;;;;;;3.97;2.80;;;4.90;99.90;;;;;;20811755;28;20794;-76
2022/04/09 09:32:44;;;;;;;3.33;2.22;;;5.60;99.90;;;;;;20792666;28;20041;-74
2022/04/09 09:42:45;;;;;;;6.90;2.08;;;4.80;99.90;;;;;;20777210;28;20036;-74
2022/04/09 09:52:45;;;;;;;;;;;4.20;99.90;;;;;;20809926;28;20038;-75
2022/04/09 10:02:46;;;;;;;4.23;2.50;;;4.60;99.90;;;;;;20808348;28;19923;-75
2022/04/09 10:12:49;;;;;;;5.15;2.80;;;5.10;99.90;;;;;;20834346;23;20689;-78
2022/04/09 10:22:52;;;;;;;4.38;3.10;;;7.50;99.90;;;;;;20821919;28;20415;-76
2022/04/09 10:32:55;;;;;;;3.78;2.55;;;7.10;99.90;;;;;;20841263;28;20033;-76
2022/04/09 10:42:55;;;;;;;6.70;2.80;;;6.60;99.90;;;;;;20821641;28;20116;-78
2022/04/09 10:53:00;;;;;;;3.00;1.60;;;7.60;99.90;;;;;;20824729;28;20068;-74
2022/04/09 11:03:15;;;;;;;3.92;2.50;;;7.70;99.90;;;;;;20808517;28;20053;-75
2022/04/09 11:13:29;;;;;;;3.22;2.42;;;7.20;99.90;;;;;;20807424;28;20511;-76
2022/04/09 11:23:30;;;;;;;7.70;3.40;;;6.90;99.90;;;;;;20788154;28;20040;-76
2022/04/09 11:33:31;;;;;;;11.77;3.53;;;7.10;99.90;;;;;;20805199;28;20029;-76
2022/04/09 11:43:46;;;;;;;4.72;2.80;;;7.20;99.90;;;;;;20804537;28;20038;-76
2022/04/09 11:53:47;;;;;;;4.50;3.10;;;7.40;99.90;;;;;;20804628;28;20112;-75
2022/04/09 12:03:52;;;;;;;6.00;2.97;;;7.90;99.90;;;;;;20816141;28;20458;-75
2022/04/09 12:13:53;;;;;;;5.50;2.90;;;7.80;99.90;;;;;;20821857;28;20388;-75
2022/04/09 12:24:11;;;;;;;15.07;3.27;;;7.30;99.90;;;;;;20799040;28;20033;-75
2022/04/09 12:34:12;;;;;;;10.35;3.00;;;7.60;99.90;;;;;;20813163;28;20047;-73
2022/04/09 12:44:28;;;;;;;;;;;7.50;99.90;;;;;;20811078;28;20029;-75
2022/04/09 12:54:30;;;;;;;3.60;1.85;;;7.80;99.90;;;;;;20816053;28;19924;-75
2022/04/09 13:04:31;;;;;;;2.53;1.40;;;8.10;99.90;;;;;;20807006;28;20041;-75
2022/04/09 13:14:32;;;;;;;3.87;1.67;;;8.10;99.90;;;;;;20794748;28;20043;-75
2022/04/09 13:24:33;;;;;;;6.30;2.30;;;8.40;99.90;;;;;;20811087;28;20029;-75
2022/04/09 13:34:34;;;;;;;4.13;2.37;;;7.60;99.90;;;;;;20814869;28;20033;-75
2022/04/09 13:44:35;;;;;;;4.10;2.90;;;8.80;99.90;;;;;;20818739;28;20060;-75
2022/04/09 13:54:36;;;;;;;2.47;2.03;;;10.20;99.90;;;;;;20808730;28;20502;-75
2022/04/09 14:04:37;;;;;;;3.80;2.20;;;8.90;99.90;;;;;;20802981;28;20032;-76
2022/04/09 14:14:38;;;;;;;2.53;1.60;;;10.60;99.90;;;;;;20855723;28;20029;-75
2022/04/09 14:24:39;;;;;;;3.43;1.53;;;10.00;99.90;;;;;;20805565;28;20095;-75
2022/04/09 14:34:39;;;;;;;2.33;1.60;;;10.60;99.90;;;;;;20787348;28;20045;-75
2022/04/09 14:44:40;;;;;;;2.20;1.50;;;10.80;99.90;;;;;;20820834;28;20630;-76
2022/04/09 14:54:42;;;;;;;2.03;1.67;;;10.00;99.90;;;;;;20824155;28;20057;-77
2022/04/09 15:04:43;;;;;;;6.00;2.27;;;10.30;99.90;;;;;;20832682;28;20091;-78
2022/04/09 15:14:44;;;;;;;6.27;2.93;;;9.10;99.90;;;;;;20827763;28;20407;-77
2022/04/09 15:24:45;;;;;;;5.93;2.60;;;9.80;99.90;;;;;;20824059;28;20538;-77
2022/04/09 15:34:46;;;;;;;4.00;1.80;;;8.50;99.90;;;;;;20840810;28;20443;-79
2022/04/09 15:44:47;;;;;;;2.43;1.80;;;8.60;99.90;;;;;;20851279;28;20554;-79
2022/04/09 15:54:48;;;;;;;21.90;2.30;;;8.50;99.90;;;;;;20860536;28;20091;-78
2022/04/09 16:04:49;;;;;;;5.93;2.53;;;8.30;99.90;;;;;;20857566;22;20042;-75
2022/04/09 16:14:49;;;;;;;6.43;2.40;;;8.20;99.90;;;;;;20753933;28;20041;-76
2022/04/09 16:24:50;;;;;;;9.93;2.47;;;7.70;99.90;;;;;;20754602;28;20042;-76
2022/04/09 16:34:51;;;;;;;2.97;2.10;;;7.50;99.90;;;;;;20753455;28;20033;-75
2022/04/09 16:44:52;;;;;;;3.40;2.30;;;7.40;99.90;;;;;;20752091;28;20121;-76
2022/04/09 16:54:53;;;;;;;6.10;2.30;;;7.40;99.90;;;;;;20751812;28;20029;-77
2022/04/09 17:04:54;;;;;;;3.53;2.20;;;7.20;99.90;;;;;;20750986;28;20026;-76
2022/04/09 17:14:55;;;;;;;7.82;3.15;;;6.80;99.90;;;;;;20750492;28;20037;-76
2022/04/09 17:24:56;;;;;;;3.90;2.20;;;6.90;99.90;;;;;;20749227;28;20026;-77
2022/04/09 17:34:57;;;;;;;4.23;2.20;;;7.10;99.90;;;;;;20748773;28;20374;-77
2022/04/09 17:44:58;;;;;;;3.83;2.43;;;7.20;99.90;;;;;;20747834;28;20034;-77
2022/04/09 17:54:58;;;;;;;2.50;1.77;;;7.00;99.90;;;;;;20746605;28;20042;-76
2022/04/09 18:04:59;;;;;;;6.27;2.20;;;6.60;99.90;;;;;;20728966;28;20510;-75
2022/04/09 18:15:00;;;;;;;6.80;3.10;;;6.20;99.90;;;;;;20746013;28;20025;-76
2022/04/09 18:25:01;;;;;;;6.60;2.40;;;5.60;99.90;;;;;;20766917;28;20029;-76
2022/04/09 18:35:02;;;;;;;3.63;2.30;;;5.10;99.90;;;;;;20744668;28;20034;-75
2022/04/09 18:45:06;;;;;;;5.93;2.70;;;4.90;99.90;;;;;;20743722;28;20165;-76
2022/04/09 18:55:08;;;;;;;4.20;2.88;;;5.20;99.90;;;;;;20743603;28;20026;-76
2022/04/09 19:05:09;;;;;;;;;;;5.30;99.90;;;;;;20744423;28;20040;-76
2022/04/09 19:15:11;;;;;;;4.35;2.50;;;5.40;99.90;;;;;;20758226;28;19914;-76
2022/04/09 19:25:12;;;;;;;5.30;2.60;;;5.20;99.90;;;;;;20757640;28;20037;-74
2022/04/09 19:35:14;;;;;;;4.47;2.92;;;5.30;99.90;;;;;;20758174;28;20407;-74
2022/04/09 19:45:14;;;;;;;4.70;2.97;;;5.30;99.90;;;;;;20756951;28;20026;-75
2022/04/09 19:55:15;;;;;;;5.22;2.55;;;5.30;99.90;;;;;;20762053;28;20030;-75
2022/04/09 20:05:16;;;;;;;3.80;2.65;;;5.00;99.90;;;;;;20762745;28;20608;-76
2022/04/09 20:15:18;;;;;;;3.40;2.43;;;4.20;99.90;;;;;;20754777;28;20061;-76
2022/04/09 20:25:18;;;;;;;3.53;2.83;;;4.40;99.90;;;;;;20784889;28;20021;-76
2022/04/09 20:35:19;;;;;;;;;;;3.80;99.90;;;;;;20753686;28;20036;-76
2022/04/09 20:45:20;;;;;;;8.23;3.20;;;4.10;99.90;;;;;;20750583;28;19914;-76
2022/04/09 20:55:21;;;;;;;5.07;3.20;;;4.30;99.90;;;;;;20751408;28;20069;-76
2022/04/09 21:05:23;;;;;;;8.02;4.18;;;4.30;99.90;;;;;;20750540;28;20029;-75
2022/04/09 21:15:24;;;;;;;5.53;2.88;;;4.40;99.90;;;;;;20749803;28;20389;-75
2022/04/09 21:25:25;;;;;;;;;;;4.30;99.90;;;;;;20748304;28;20034;-76
2022/04/09 21:35:25;;;;;;;4.80;2.17;;;4.50;99.90;;;;;;20748131;28;19936;-74
2022/04/09 21:45:26;;;;;;;3.50;1.80;;;4.60;99.90;;;;;;20747896;28;20328;-76
2022/04/09 21:55:27;;;;;;;4.87;2.50;;;4.60;99.90;;;;;;20747508;28;20323;-76
2022/04/09 22:05:28;;;;;;;2.80;2.33;;;4.40;99.90;;;;;;20778666;22;20078;-79
2022/04/09 22:15:29;;;;;;;1.83;1.50;;;4.60;99.90;;;;;;20835472;28;20030;-78
2022/04/09 22:25:30;;;;;;;2.15;1.67;;;4.40;99.90;;;;;;20833517;28;20311;-80
2022/04/09 22:35:32;;;;;;;2.42;1.40;;;4.20;99.90;;;;;;20836424;28;20028;-79
2022/04/09 22:45:33;;;;;;;1.58;1.33;;;4.10;99.90;;;;;;20839898;28;20168;-79
2022/04/09 22:55:33;;;;;;;;;;;3.90;99.90;;;;;;20841303;28;20029;-78
2022/04/09 23:05:34;;;;;;;4.15;2.15;;;3.60;99.90;;;;;;20840020;28;20363;-79
2022/04/09 23:15:35;;;;;;;4.78;2.47;;;3.20;99.90;;;;;;20833359;28;20551;-78
2022/04/09 23:25:36;;;;;;;3.35;2.20;;;3.00;99.90;;;;;;20831203;28;20030;-78
2022/04/09 23:35:37;;;;;;;3.75;2.45;;;2.90;99.90;;;;;;20827830;28;20054;-79
2022/04/09 23:45:38;;;;;;;5.50;2.10;;;2.80;99.90;;;;;;20830349;28;20029;-79
2022/04/09 23:55:38;;;;;;;3.30;2.53;;;2.90;99.90;;;;;;20838719;28;20033;-78
